sensor_id;sensor_type;location;lat;lon;timestamp;P1;durP1;ratioP1;P2;durP2;ratioP2
19183;SDS011;9724;51.194;6.856;2023-12-20T00:01:03;12.27;;;4.93;;
19183;SDS011;9724;51.194;6.856;2023-12-20T00:03:30;10.23;;;4.83;;
19183;SDS011;9724;51.194;6.856;2023-12-20T00:06:07;13.63;;;4.63;;
19183;SDS011;9724;51.194;6.856;2023-12-20T00:08:35;8.47;;;4.83;;
19183;SDS011;9724;51.194;6.856;2023-12-20T00:11:01;9.03;;;4.20;;
19183;SDS011;9724;51.194;6.856;2023-12-20T00:13:27;8.53;;;4.20;;
19183;SDS011;9724;51.194;6.856;2023-12-20T00:15:54;11.57;;;4.90;;
19183;SDS011;9724;51.194;6.856;2023-12-20T00:18:20;11.67;;;4.33;;
19183;SDS011;9724;51.194;6.856;2023-12-20T00:20:47;9.97;;;4.37;;
19183;SDS011;9724;51.194;6.856;2023-12-20T00:23:13;13.60;;;4.10;;
19183;SDS011;9724;51.194;6.856;2023-12-20T00:25:40;10.03;;;4.10;;
19183;SDS011;9724;51.194;6.856;2023-12-20T00:28:07;7.57;;;3.87;;
19183;SDS011;9724;51.194;6.856;2023-12-20T00:30:33;6.73;;;4.17;;
19183;SDS011;9724;51.194;6.856;2023-12-20T00:32:59;7.07;;;4.53;;
19183;SDS011;9724;51.194;6.856;2023-12-20T00:35:26;8.93;;;4.60;;
19183;SDS011;9724;51.194;6.856;2023-12-20T00:37:52;7.07;;;4.70;;
19183;SDS011;9724;51.194;6.856;2023-12-20T00:40:18;12.10;;;4.37;;
19183;SDS011;9724;51.194;6.856;2023-12-20T00:42:46;12.13;;;4.83;;
19183;SDS011;9724;51.194;6.856;2023-12-20T00:45:13;8.10;;;4.30;;
19183;SDS011;9724;51.194;6.856;2023-12-20T00:47:40;12.83;;;4.60;;
19183;SDS011;9724;51.194;6.856;2023-12-20T00:50:06;9.53;;;4.57;;
19183;SDS011;9724;51.194;6.856;2023-12-20T00:52:33;9.27;;;4.73;;
19183;SDS011;9724;51.194;6.856;2023-12-20T00:54:59;9.23;;;5.13;;
19183;SDS011;9724;51.194;6.856;2023-12-20T00:57:26;13.87;;;5.10;;
19183;SDS011;9724;51.194;6.856;2023-12-20T00:59:53;10.53;;;5.60;;
19183;SDS011;9724;51.194;6.856;2023-12-20T01:02:19;10.23;;;4.93;;
19183;SDS011;9724;51.194;6.856;2023-12-20T01:04:45;14.97;;;5.90;;
19183;SDS011;9724;51.194;6.856;2023-12-20T01:07:12;14.43;;;6.17;;
19183;SDS011;9724;51.194;6.856;2023-12-20T01:09:39;12.00;;;5.73;;
19183;SDS011;9724;51.194;6.856;2023-12-20T01:12:06;12.60;;;6.03;;
19183;SDS011;9724;51.194;6.856;2023-12-20T01:14:32;16.60;;;7.00;;
19183;SDS011;9724;51.194;6.856;2023-12-20T01:16:59;21.73;;;7.60;;
19183;SDS011;9724;51.194;6.856;2023-12-20T01:19:25;13.13;;;6.73;;
19183;SDS011;9724;51.194;6.856;2023-12-20T01:21:53;20.97;;;8.27;;
19183;SDS011;9724;51.194;6.856;2023-12-20T01:24:19;18.20;;;8.17;;
19183;SDS011;9724;51.194;6.856;2023-12-20T01:26:46;17.40;;;8.47;;
19183;SDS011;9724;51.194;6.856;2023-12-20T01:29:12;23.63;;;10.13;;
19183;SDS011;9724;51.194;6.856;2023-12-20T01:31:39;18.43;;;9.40;;
19183;SDS011;9724;51.194;6.856;2023-12-20T01:34:07;18.27;;;9.40;;
19183;SDS011;9724;51.194;6.856;2023-12-20T01:36:33;24.93;;;10.67;;
19183;SDS011;9724;51.194;6.856;2023-12-20T01:38:59;22.13;;;10.60;;
19183;SDS011;9724;51.194;6.856;2023-12-20T01:41:26;21.30;;;11.43;;
19183;SDS011;9724;51.194;6.856;2023-12-20T01:43:52;30.10;;;12.07;;
19183;SDS011;9724;51.194;6.856;2023-12-20T01:46:19;25.97;;;11.93;;
19183;SDS011;9724;51.194;6.856;2023-12-20T01:48:46;26.47;;;13.00;;
19183;SDS011;9724;51.194;6.856;2023-12-20T01:51:13;23.13;;;12.73;;
19183;SDS011;9724;51.194;6.856;2023-12-20T01:53:40;25.00;;;11.77;;
19183;SDS011;9724;51.194;6.856;2023-12-20T01:56:07;25.63;;;12.60;;
19183;SDS011;9724;51.194;6.856;2023-12-20T01:58:34;22.43;;;12.07;;
19183;SDS011;9724;51.194;6.856;2023-12-20T02:01:02;22.57;;;12.17;;
19183;SDS011;9724;51.194;6.856;2023-12-20T02:03:28;25.27;;;12.10;;
19183;SDS011;9724;51.194;6.856;2023-12-20T02:05:55;30.33;;;12.10;;
19183;SDS011;9724;51.194;6.856;2023-12-20T02:08:22;28.60;;;11.30;;
19183;SDS011;9724;51.194;6.856;2023-12-20T02:10:48;25.10;;;11.27;;
19183;SDS011;9724;51.194;6.856;2023-12-20T02:13:14;26.60;;;11.30;;
19183;SDS011;9724;51.194;6.856;2023-12-20T02:15:41;24.93;;;10.80;;
19183;SDS011;9724;51.194;6.856;2023-12-20T02:18:09;22.13;;;9.57;;
19183;SDS011;9724;51.194;6.856;2023-12-20T02:20:35;28.53;;;9.93;;
19183;SDS011;9724;51.194;6.856;2023-12-20T02:23:02;19.40;;;9.80;;
19183;SDS011;9724;51.194;6.856;2023-12-20T02:25:29;32.77;;;10.13;;
19183;SDS011;9724;51.194;6.856;2023-12-20T02:27:55;34.00;;;10.07;;
19183;SDS011;9724;51.194;6.856;2023-12-20T02:30:21;25.70;;;8.80;;
19183;SDS011;9724;51.194;6.856;2023-12-20T02:32:48;19.90;;;9.17;;
19183;SDS011;9724;51.194;6.856;2023-12-20T02:35:16;24.73;;;8.43;;
19183;SDS011;9724;51.194;6.856;2023-12-20T02:37:42;22.33;;;8.93;;
19183;SDS011;9724;51.194;6.856;2023-12-20T02:40:09;24.37;;;10.13;;
19183;SDS011;9724;51.194;6.856;2023-12-20T02:42:36;17.70;;;8.07;;
19183;SDS011;9724;51.194;6.856;2023-12-20T02:45:03;26.47;;;9.07;;
19183;SDS011;9724;51.194;6.856;2023-12-20T02:47:30;25.30;;;8.13;;
19183;SDS011;9724;51.194;6.856;2023-12-20T02:49:56;21.47;;;7.77;;
19183;SDS011;9724;51.194;6.856;2023-12-20T02:52:23;22.00;;;7.87;;
19183;SDS011;9724;51.194;6.856;2023-12-20T02:54:49;18.37;;;6.77;;
19183;SDS011;9724;51.194;6.856;2023-12-20T02:57:16;22.57;;;6.63;;
19183;SDS011;9724;51.194;6.856;2023-12-20T02:59:43;27.73;;;6.57;;
19183;SDS011;9724;51.194;6.856;2023-12-20T03:02:09;20.33;;;6.20;;
19183;SDS011;9724;51.194;6.856;2023-12-20T03:04:35;21.67;;;5.70;;
19183;SDS011;9724;51.194;6.856;2023-12-20T03:07:02;15.70;;;5.37;;
19183;SDS011;9724;51.194;6.856;2023-12-20T03:09:28;17.37;;;5.07;;
19183;SDS011;9724;51.194;6.856;2023-12-20T03:12:04;21.50;;;5.00;;
19183;SDS011;9724;51.194;6.856;2023-12-20T03:14:31;16.43;;;4.73;;
19183;SDS011;9724;51.194;6.856;2023-12-20T03:16:57;17.47;;;4.73;;
19183;SDS011;9724;51.194;6.856;2023-12-20T03:19:26;19.87;;;4.03;;
19183;SDS011;9724;51.194;6.856;2023-12-20T03:21:52;18.07;;;4.47;;
19183;SDS011;9724;51.194;6.856;2023-12-20T03:24:19;26.83;;;4.53;;
19183;SDS011;9724;51.194;6.856;2023-12-20T03:26:45;15.77;;;4.23;;
19183;SDS011;9724;51.194;6.856;2023-12-20T03:29:11;16.00;;;4.27;;
19183;SDS011;9724;51.194;6.856;2023-12-20T03:31:38;18.47;;;3.87;;
19183;SDS011;9724;51.194;6.856;2023-12-20T03:34:05;14.93;;;4.57;;
19183;SDS011;9724;51.194;6.856;2023-12-20T03:36:31;21.03;;;4.10;;
19183;SDS011;9724;51.194;6.856;2023-12-20T03:38:58;12.23;;;3.80;;
19183;SDS011;9724;51.194;6.856;2023-12-20T03:41:24;15.10;;;3.90;;
19183;SDS011;9724;51.194;6.856;2023-12-20T03:43:50;16.13;;;4.07;;
19183;SDS011;9724;51.194;6.856;2023-12-20T03:46:17;20.37;;;3.47;;
19183;SDS011;9724;51.194;6.856;2023-12-20T03:48:44;21.53;;;4.60;;
19183;SDS011;9724;51.194;6.856;2023-12-20T03:51:10;15.93;;;3.60;;
19183;SDS011;9724;51.194;6.856;2023-12-20T03:53:36;17.83;;;3.63;;
19183;SDS011;9724;51.194;6.856;2023-12-20T03:56:03;21.60;;;4.50;;
19183;SDS011;9724;51.194;6.856;2023-12-20T03:58:29;28.27;;;4.30;;
19183;SDS011;9724;51.194;6.856;2023-12-20T04:00:56;14.17;;;4.17;;
19183;SDS011;9724;51.194;6.856;2023-12-20T04:03:22;22.07;;;4.20;;
19183;SDS011;9724;51.194;6.856;2023-12-20T04:05:49;13.83;;;3.47;;
19183;SDS011;9724;51.194;6.856;2023-12-20T04:08:15;16.40;;;3.83;;
19183;SDS011;9724;51.194;6.856;2023-12-20T04:10:42;19.40;;;4.37;;
19183;SDS011;9724;51.194;6.856;2023-12-20T04:13:08;15.53;;;3.70;;
19183;SDS011;9724;51.194;6.856;2023-12-20T04:15:34;10.63;;;3.73;;
19183;SDS011;9724;51.194;6.856;2023-12-20T04:18:01;13.60;;;3.77;;
19183;SDS011;9724;51.194;6.856;2023-12-20T04:20:27;18.20;;;3.40;;
19183;SDS011;9724;51.194;6.856;2023-12-20T04:22:54;16.10;;;3.80;;
19183;SDS011;9724;51.194;6.856;2023-12-20T04:25:20;10.77;;;3.63;;
19183;SDS011;9724;51.194;6.856;2023-12-20T04:27:47;18.73;;;4.70;;
19183;SDS011;9724;51.194;6.856;2023-12-20T04:30:14;19.50;;;4.33;;
19183;SDS011;9724;51.194;6.856;2023-12-20T04:32:40;13.57;;;3.43;;
19183;SDS011;9724;51.194;6.856;2023-12-20T04:35:07;25.20;;;4.37;;
19183;SDS011;9724;51.194;6.856;2023-12-20T04:37:34;19.40;;;5.00;;
19183;SDS011;9724;51.194;6.856;2023-12-20T04:40:00;13.17;;;4.43;;
19183;SDS011;9724;51.194;6.856;2023-12-20T04:42:27;17.37;;;4.33;;
19183;SDS011;9724;51.194;6.856;2023-12-20T04:44:53;23.53;;;5.23;;
19183;SDS011;9724;51.194;6.856;2023-12-20T04:47:20;21.20;;;4.60;;
19183;SDS011;9724;51.194;6.856;2023-12-20T04:49:46;26.03;;;4.50;;
19183;SDS011;9724;51.194;6.856;2023-12-20T04:52:14;25.07;;;4.83;;
19183;SDS011;9724;51.194;6.856;2023-12-20T04:54:40;17.67;;;5.17;;
19183;SDS011;9724;51.194;6.856;2023-12-20T04:57:11;23.67;;;5.07;;
19183;SDS011;9724;51.194;6.856;2023-12-20T04:59:37;23.53;;;5.67;;
19183;SDS011;9724;51.194;6.856;2023-12-20T05:02:03;24.73;;;5.37;;
19183;SDS011;9724;51.194;6.856;2023-12-20T05:04:29;22.27;;;5.47;;
19183;SDS011;9724;51.194;6.856;2023-12-20T05:06:56;18.37;;;5.10;;
19183;SDS011;9724;51.194;6.856;2023-12-20T05:09:22;20.67;;;5.83;;
19183;SDS011;9724;51.194;6.856;2023-12-20T05:11:48;19.73;;;4.70;;
19183;SDS011;9724;51.194;6.856;2023-12-20T05:14:15;23.43;;;5.03;;
19183;SDS011;9724;51.194;6.856;2023-12-20T05:16:42;24.73;;;5.00;;
19183;SDS011;9724;51.194;6.856;2023-12-20T05:19:08;21.80;;;4.60;;
19183;SDS011;9724;51.194;6.856;2023-12-20T05:21:35;22.10;;;5.23;;
19183;SDS011;9724;51.194;6.856;2023-12-20T05:24:01;20.37;;;5.73;;
19183;SDS011;9724;51.194;6.856;2023-12-20T05:26:28;24.47;;;6.67;;
19183;SDS011;9724;51.194;6.856;2023-12-20T05:28:55;33.80;;;6.90;;
19183;SDS011;9724;51.194;6.856;2023-12-20T05:31:22;22.13;;;5.33;;
19183;SDS011;9724;51.194;6.856;2023-12-20T05:33:48;17.73;;;4.10;;
19183;SDS011;9724;51.194;6.856;2023-12-20T05:36:15;28.97;;;5.00;;
19183;SDS011;9724;51.194;6.856;2023-12-20T05:38:42;18.83;;;4.30;;
19183;SDS011;9724;51.194;6.856;2023-12-20T05:41:08;24.57;;;4.50;;
19183;SDS011;9724;51.194;6.856;2023-12-20T05:43:34;21.77;;;4.37;;
19183;SDS011;9724;51.194;6.856;2023-12-20T05:46:01;24.83;;;5.07;;
19183;SDS011;9724;51.194;6.856;2023-12-20T05:48:28;25.50;;;5.13;;
19183;SDS011;9724;51.194;6.856;2023-12-20T05:50:54;21.47;;;4.53;;
19183;SDS011;9724;51.194;6.856;2023-12-20T05:53:21;16.50;;;4.57;;
19183;SDS011;9724;51.194;6.856;2023-12-20T05:55:47;24.07;;;4.60;;
19183;SDS011;9724;51.194;6.856;2023-12-20T05:58:13;18.70;;;4.63;;
19183;SDS011;9724;51.194;6.856;2023-12-20T06:00:39;15.73;;;4.50;;
19183;SDS011;9724;51.194;6.856;2023-12-20T06:03:06;18.67;;;5.10;;
19183;SDS011;9724;51.194;6.856;2023-12-20T06:05:33;19.33;;;4.57;;
19183;SDS011;9724;51.194;6.856;2023-12-20T06:07:59;18.60;;;4.77;;
19183;SDS011;9724;51.194;6.856;2023-12-20T06:10:28;26.80;;;4.37;;
19183;SDS011;9724;51.194;6.856;2023-12-20T06:12:55;24.83;;;4.27;;
19183;SDS011;9724;51.194;6.856;2023-12-20T06:15:22;12.57;;;4.60;;
19183;SDS011;9724;51.194;6.856;2023-12-20T06:17:48;24.10;;;4.77;;
19183;SDS011;9724;51.194;6.856;2023-12-20T06:20:15;20.33;;;5.13;;
19183;SDS011;9724;51.194;6.856;2023-12-20T06:22:42;9.57;;;4.60;;
19183;SDS011;9724;51.194;6.856;2023-12-20T06:25:09;29.50;;;5.53;;
19183;SDS011;9724;51.194;6.856;2023-12-20T06:27:35;18.20;;;4.90;;
19183;SDS011;9724;51.194;6.856;2023-12-20T06:30:02;18.87;;;5.17;;
19183;SDS011;9724;51.194;6.856;2023-12-20T06:32:29;19.07;;;5.03;;
19183;SDS011;9724;51.194;6.856;2023-12-20T06:34:55;29.90;;;5.33;;
19183;SDS011;9724;51.194;6.856;2023-12-20T06:37:22;27.50;;;6.03;;
19183;SDS011;9724;51.194;6.856;2023-12-20T06:39:49;21.50;;;4.70;;
19183;SDS011;9724;51.194;6.856;2023-12-20T06:42:16;18.30;;;5.17;;
19183;SDS011;9724;51.194;6.856;2023-12-20T06:44:42;23.13;;;5.53;;
19183;SDS011;9724;51.194;6.856;2023-12-20T06:47:09;23.83;;;5.97;;
19183;SDS011;9724;51.194;6.856;2023-12-20T06:49:35;22.77;;;5.10;;
19183;SDS011;9724;51.194;6.856;2023-12-20T06:52:01;29.13;;;4.90;;
19183;SDS011;9724;51.194;6.856;2023-12-20T06:54:28;21.10;;;5.57;;
19183;SDS011;9724;51.194;6.856;2023-12-20T06:56:55;22.97;;;5.70;;
19183;SDS011;9724;51.194;6.856;2023-12-20T06:59:22;21.07;;;6.17;;
19183;SDS011;9724;51.194;6.856;2023-12-20T07:01:48;16.70;;;5.07;;
19183;SDS011;9724;51.194;6.856;2023-12-20T07:04:15;34.87;;;5.57;;
19183;SDS011;9724;51.194;6.856;2023-12-20T07:06:42;29.33;;;5.77;;
19183;SDS011;9724;51.194;6.856;2023-12-20T07:09:08;22.50;;;5.37;;
19183;SDS011;9724;51.194;6.856;2023-12-20T07:11:36;24.43;;;5.10;;
19183;SDS011;9724;51.194;6.856;2023-12-20T07:14:03;17.63;;;5.03;;
19183;SDS011;9724;51.194;6.856;2023-12-20T07:16:29;30.17;;;4.97;;
19183;SDS011;9724;51.194;6.856;2023-12-20T07:18:55;28.00;;;4.97;;
19183;SDS011;9724;51.194;6.856;2023-12-20T07:21:25;26.20;;;5.47;;
19183;SDS011;9724;51.194;6.856;2023-12-20T07:23:51;19.60;;;5.17;;
19183;SDS011;9724;51.194;6.856;2023-12-20T07:26:17;21.17;;;4.97;;
19183;SDS011;9724;51.194;6.856;2023-12-20T07:28:43;29.03;;;5.37;;
19183;SDS011;9724;51.194;6.856;2023-12-20T07:31:11;18.87;;;4.73;;
19183;SDS011;9724;51.194;6.856;2023-12-20T07:33:38;19.80;;;4.80;;
19183;SDS011;9724;51.194;6.856;2023-12-20T07:36:06;15.13;;;4.97;;
19183;SDS011;9724;51.194;6.856;2023-12-20T07:38:32;26.57;;;5.40;;
19183;SDS011;9724;51.194;6.856;2023-12-20T07:40:58;18.90;;;5.23;;
19183;SDS011;9724;51.194;6.856;2023-12-20T07:43:25;25.40;;;5.10;;
19183;SDS011;9724;51.194;6.856;2023-12-20T07:45:51;20.33;;;5.67;;
19183;SDS011;9724;51.194;6.856;2023-12-20T07:48:18;19.37;;;4.93;;
19183;SDS011;9724;51.194;6.856;2023-12-20T07:50:45;27.20;;;5.80;;
19183;SDS011;9724;51.194;6.856;2023-12-20T07:53:11;31.00;;;5.30;;
19183;SDS011;9724;51.194;6.856;2023-12-20T07:55:38;28.47;;;7.00;;
19183;SDS011;9724;51.194;6.856;2023-12-20T07:58:05;26.67;;;5.80;;
19183;SDS011;9724;51.194;6.856;2023-12-20T08:00:31;22.27;;;5.77;;
19183;SDS011;9724;51.194;6.856;2023-12-20T08:02:58;25.33;;;4.80;;
19183;SDS011;9724;51.194;6.856;2023-12-20T08:05:25;22.80;;;5.60;;
19183;SDS011;9724;51.194;6.856;2023-12-20T08:07:51;24.33;;;5.13;;
19183;SDS011;9724;51.194;6.856;2023-12-20T08:10:17;22.37;;;5.60;;
19183;SDS011;9724;51.194;6.856;2023-12-20T08:12:44;22.10;;;5.60;;
19183;SDS011;9724;51.194;6.856;2023-12-20T08:15:11;23.53;;;5.57;;
19183;SDS011;9724;51.194;6.856;2023-12-20T08:17:37;22.30;;;5.67;;
19183;SDS011;9724;51.194;6.856;2023-12-20T08:20:04;15.83;;;5.37;;
19183;SDS011;9724;51.194;6.856;2023-12-20T08:22:31;28.93;;;5.73;;
19183;SDS011;9724;51.194;6.856;2023-12-20T08:24:58;19.47;;;5.83;;
19183;SDS011;9724;51.194;6.856;2023-12-20T08:27:24;20.60;;;6.40;;
19183;SDS011;9724;51.194;6.856;2023-12-20T08:29:51;22.47;;;5.17;;
19183;SDS011;9724;51.194;6.856;2023-12-20T08:32:17;19.83;;;5.60;;
19183;SDS011;9724;51.194;6.856;2023-12-20T08:34:44;23.13;;;5.67;;
19183;SDS011;9724;51.194;6.856;2023-12-20T08:37:10;21.43;;;5.10;;
19183;SDS011;9724;51.194;6.856;2023-12-20T08:39:37;26.23;;;5.93;;
19183;SDS011;9724;51.194;6.856;2023-12-20T08:42:03;21.00;;;4.93;;
19183;SDS011;9724;51.194;6.856;2023-12-20T08:44:30;25.43;;;6.40;;
19183;SDS011;9724;51.194;6.856;2023-12-20T08:46:56;21.70;;;4.97;;
19183;SDS011;9724;51.194;6.856;2023-12-20T08:49:23;17.37;;;4.53;;
19183;SDS011;9724;51.194;6.856;2023-12-20T08:51:49;26.10;;;4.90;;
19183;SDS011;9724;51.194;6.856;2023-12-20T08:54:15;26.07;;;5.40;;
19183;SDS011;9724;51.194;6.856;2023-12-20T08:56:43;17.63;;;4.73;;
19183;SDS011;9724;51.194;6.856;2023-12-20T08:59:09;19.57;;;4.90;;
19183;SDS011;9724;51.194;6.856;2023-12-20T09:01:36;19.67;;;4.43;;
19183;SDS011;9724;51.194;6.856;2023-12-20T09:04:02;12.87;;;4.77;;
19183;SDS011;9724;51.194;6.856;2023-12-20T09:06:29;17.10;;;4.70;;
19183;SDS011;9724;51.194;6.856;2023-12-20T09:08:55;20.20;;;4.60;;
19183;SDS011;9724;51.194;6.856;2023-12-20T09:11:22;16.63;;;4.13;;
19183;SDS011;9724;51.194;6.856;2023-12-20T09:13:49;26.07;;;4.53;;
19183;SDS011;9724;51.194;6.856;2023-12-20T09:16:15;21.60;;;4.07;;
19183;SDS011;9724;51.194;6.856;2023-12-20T09:18:42;20.17;;;4.50;;
19183;SDS011;9724;51.194;6.856;2023-12-20T09:21:08;19.97;;;4.43;;
19183;SDS011;9724;51.194;6.856;2023-12-20T09:23:35;28.07;;;4.90;;
19183;SDS011;9724;51.194;6.856;2023-12-20T09:26:02;16.47;;;4.23;;
19183;SDS011;9724;51.194;6.856;2023-12-20T09:28:29;22.87;;;4.87;;
19183;SDS011;9724;51.194;6.856;2023-12-20T09:30:56;17.03;;;4.30;;
19183;SDS011;9724;51.194;6.856;2023-12-20T09:33:23;21.00;;;3.60;;
19183;SDS011;9724;51.194;6.856;2023-12-20T09:35:50;16.67;;;4.03;;
19183;SDS011;9724;51.194;6.856;2023-12-20T09:38:17;16.43;;;4.23;;
19183;SDS011;9724;51.194;6.856;2023-12-20T09:40:43;25.13;;;3.70;;
19183;SDS011;9724;51.194;6.856;2023-12-20T09:43:10;17.00;;;4.00;;
19183;SDS011;9724;51.194;6.856;2023-12-20T09:45:39;23.43;;;3.97;;
19183;SDS011;9724;51.194;6.856;2023-12-20T09:48:07;21.00;;;3.50;;
19183;SDS011;9724;51.194;6.856;2023-12-20T09:50:34;25.87;;;4.57;;
19183;SDS011;9724;51.194;6.856;2023-12-20T09:53:01;14.70;;;3.40;;
19183;SDS011;9724;51.194;6.856;2023-12-20T09:55:30;18.47;;;3.60;;
19183;SDS011;9724;51.194;6.856;2023-12-20T09:57:56;18.73;;;4.00;;
19183;SDS011;9724;51.194;6.856;2023-12-20T10:00:23;23.23;;;4.23;;
19183;SDS011;9724;51.194;6.856;2023-12-20T10:02:50;19.10;;;3.67;;
19183;SDS011;9724;51.194;6.856;2023-12-20T10:05:19;14.00;;;3.73;;
19183;SDS011;9724;51.194;6.856;2023-12-20T10:07:53;16.40;;;3.83;;
19183;SDS011;9724;51.194;6.856;2023-12-20T10:10:20;17.20;;;4.30;;
19183;SDS011;9724;51.194;6.856;2023-12-20T10:13:00;27.33;;;4.30;;
19183;SDS011;9724;51.194;6.856;2023-12-20T10:15:28;16.20;;;3.97;;
19183;SDS011;9724;51.194;6.856;2023-12-20T10:17:54;12.53;;;3.30;;
19183;SDS011;9724;51.194;6.856;2023-12-20T10:20:27;14.03;;;3.17;;
19183;SDS011;9724;51.194;6.856;2023-12-20T10:22:54;13.97;;;3.40;;
19183;SDS011;9724;51.194;6.856;2023-12-20T10:25:22;15.90;;;3.23;;
19183;SDS011;9724;51.194;6.856;2023-12-20T10:27:49;12.07;;;3.77;;
19183;SDS011;9724;51.194;6.856;2023-12-20T10:30:16;21.63;;;3.90;;
19183;SDS011;9724;51.194;6.856;2023-12-20T10:32:43;22.20;;;4.07;;
19183;SDS011;9724;51.194;6.856;2023-12-20T10:35:09;19.30;;;3.47;;
19183;SDS011;9724;51.194;6.856;2023-12-20T10:37:36;19.60;;;4.37;;
19183;SDS011;9724;51.194;6.856;2023-12-20T10:40:03;20.63;;;3.80;;
19183;SDS011;9724;51.194;6.856;2023-12-20T10:42:31;21.40;;;4.40;;
19183;SDS011;9724;51.194;6.856;2023-12-20T10:44:58;14.00;;;3.83;;
19183;SDS011;9724;51.194;6.856;2023-12-20T10:47:25;26.63;;;3.73;;
19183;SDS011;9724;51.194;6.856;2023-12-20T10:49:52;19.90;;;3.67;;
19183;SDS011;9724;51.194;6.856;2023-12-20T10:52:19;15.53;;;3.40;;
19183;SDS011;9724;51.194;6.856;2023-12-20T10:54:47;21.17;;;3.50;;
19183;SDS011;9724;51.194;6.856;2023-12-20T10:57:13;28.20;;;3.53;;
19183;SDS011;9724;51.194;6.856;2023-12-20T10:59:39;18.50;;;3.40;;
19183;SDS011;9724;51.194;6.856;2023-12-20T11:02:06;20.53;;;3.70;;
19183;SDS011;9724;51.194;6.856;2023-12-20T11:04:37;14.47;;;3.93;;
19183;SDS011;9724;51.194;6.856;2023-12-20T11:07:08;25.17;;;4.17;;
19183;SDS011;9724;51.194;6.856;2023-12-20T11:09:43;15.40;;;3.63;;
19183;SDS011;9724;51.194;6.856;2023-12-20T11:12:15;20.63;;;4.10;;
19183;SDS011;9724;51.194;6.856;2023-12-20T11:14:45;20.07;;;3.50;;
19183;SDS011;9724;51.194;6.856;2023-12-20T11:17:12;13.00;;;3.20;;
19183;SDS011;9724;51.194;6.856;2023-12-20T11:19:43;17.20;;;3.47;;
19183;SDS011;9724;51.194;6.856;2023-12-20T11:22:30;21.37;;;3.90;;
19183;SDS011;9724;51.194;6.856;2023-12-20T11:24:59;12.07;;;3.23;;
19183;SDS011;9724;51.194;6.856;2023-12-20T11:27:30;14.87;;;3.70;;
19183;SDS011;9724;51.194;6.856;2023-12-20T11:29:58;14.17;;;3.63;;
19183;SDS011;9724;51.194;6.856;2023-12-20T11:32:28;17.13;;;3.60;;
19183;SDS011;9724;51.194;6.856;2023-12-20T11:34:55;19.00;;;3.80;;
19183;SDS011;9724;51.194;6.856;2023-12-20T11:37:21;20.30;;;4.10;;
19183;SDS011;9724;51.194;6.856;2023-12-20T11:39:53;13.17;;;3.43;;
19183;SDS011;9724;51.194;6.856;2023-12-20T11:42:20;18.57;;;3.20;;
19183;SDS011;9724;51.194;6.856;2023-12-20T11:44:47;14.40;;;3.60;;
19183;SDS011;9724;51.194;6.856;2023-12-20T11:47:14;16.50;;;3.60;;
19183;SDS011;9724;51.194;6.856;2023-12-20T11:49:41;12.73;;;3.20;;
19183;SDS011;9724;51.194;6.856;2023-12-20T11:52:08;11.67;;;3.67;;
19183;SDS011;9724;51.194;6.856;2023-12-20T11:54:34;13.07;;;3.20;;
19183;SDS011;9724;51.194;6.856;2023-12-20T11:57:00;17.63;;;3.13;;
19183;SDS011;9724;51.194;6.856;2023-12-20T11:59:27;14.90;;;3.20;;
19183;SDS011;9724;51.194;6.856;2023-12-20T12:01:54;13.90;;;3.40;;
19183;SDS011;9724;51.194;6.856;2023-12-20T12:04:25;11.27;;;3.47;;
19183;SDS011;9724;51.194;6.856;2023-12-20T12:06:52;12.40;;;3.47;;
19183;SDS011;9724;51.194;6.856;2023-12-20T12:09:19;16.53;;;3.53;;
19183;SDS011;9724;51.194;6.856;2023-12-20T12:11:47;17.27;;;3.93;;
19183;SDS011;9724;51.194;6.856;2023-12-20T12:14:13;24.60;;;4.20;;
19183;SDS011;9724;51.194;6.856;2023-12-20T12:16:42;16.40;;;3.97;;
19183;SDS011;9724;51.194;6.856;2023-12-20T12:19:20;18.27;;;3.30;;
19183;SDS011;9724;51.194;6.856;2023-12-20T12:21:46;14.40;;;3.57;;
19183;SDS011;9724;51.194;6.856;2023-12-20T12:24:13;16.43;;;3.93;;
19183;SDS011;9724;51.194;6.856;2023-12-20T12:26:39;13.17;;;3.67;;
19183;SDS011;9724;51.194;6.856;2023-12-20T12:29:07;13.53;;;3.60;;
19183;SDS011;9724;51.194;6.856;2023-12-20T12:31:33;17.33;;;3.60;;
19183;SDS011;9724;51.194;6.856;2023-12-20T12:34:00;16.17;;;4.00;;
19183;SDS011;9724;51.194;6.856;2023-12-20T12:36:28;16.80;;;3.57;;
19183;SDS011;9724;51.194;6.856;2023-12-20T12:38:56;23.77;;;4.10;;
19183;SDS011;9724;51.194;6.856;2023-12-20T12:41:22;20.33;;;4.20;;
19183;SDS011;9724;51.194;6.856;2023-12-20T12:43:49;14.70;;;3.43;;
19183;SDS011;9724;51.194;6.856;2023-12-20T12:46:15;18.60;;;3.87;;
19183;SDS011;9724;51.194;6.856;2023-12-20T12:48:41;17.83;;;4.10;;
19183;SDS011;9724;51.194;6.856;2023-12-20T12:51:12;10.07;;;3.67;;
19183;SDS011;9724;51.194;6.856;2023-12-20T12:53:39;15.93;;;4.23;;
19183;SDS011;9724;51.194;6.856;2023-12-20T12:56:06;12.67;;;4.17;;
19183;SDS011;9724;51.194;6.856;2023-12-20T12:58:32;19.70;;;3.97;;
19183;SDS011;9724;51.194;6.856;2023-12-20T13:00:59;14.30;;;4.10;;
19183;SDS011;9724;51.194;6.856;2023-12-20T13:03:26;18.63;;;4.37;;
19183;SDS011;9724;51.194;6.856;2023-12-20T13:05:52;18.43;;;4.40;;
19183;SDS011;9724;51.194;6.856;2023-12-20T13:08:19;16.70;;;4.33;;
19183;SDS011;9724;51.194;6.856;2023-12-20T13:10:45;20.17;;;4.30;;
19183;SDS011;9724;51.194;6.856;2023-12-20T13:13:12;15.77;;;4.67;;
19183;SDS011;9724;51.194;6.856;2023-12-20T13:15:39;19.87;;;5.00;;
19183;SDS011;9724;51.194;6.856;2023-12-20T13:18:06;24.97;;;5.27;;
19183;SDS011;9724;51.194;6.856;2023-12-20T13:20:32;17.70;;;4.87;;
19183;SDS011;9724;51.194;6.856;2023-12-20T13:22:59;23.57;;;5.00;;
19183;SDS011;9724;51.194;6.856;2023-12-20T13:25:26;23.13;;;5.67;;
19183;SDS011;9724;51.194;6.856;2023-12-20T13:27:53;24.20;;;5.40;;
19183;SDS011;9724;51.194;6.856;2023-12-20T13:30:20;17.10;;;4.93;;
19183;SDS011;9724;51.194;6.856;2023-12-20T13:32:46;18.17;;;5.13;;
19183;SDS011;9724;51.194;6.856;2023-12-20T13:35:14;18.40;;;4.97;;
19183;SDS011;9724;51.194;6.856;2023-12-20T13:37:41;21.57;;;4.90;;
19183;SDS011;9724;51.194;6.856;2023-12-20T13:40:08;14.90;;;4.53;;
19183;SDS011;9724;51.194;6.856;2023-12-20T13:42:36;20.17;;;5.13;;
19183;SDS011;9724;51.194;6.856;2023-12-20T13:45:03;20.77;;;5.03;;
19183;SDS011;9724;51.194;6.856;2023-12-20T13:47:30;14.40;;;4.70;;
19183;SDS011;9724;51.194;6.856;2023-12-20T13:49:56;20.47;;;5.27;;
19183;SDS011;9724;51.194;6.856;2023-12-20T13:52:23;18.40;;;5.67;;
19183;SDS011;9724;51.194;6.856;2023-12-20T13:54:49;20.97;;;5.73;;
19183;SDS011;9724;51.194;6.856;2023-12-20T13:57:16;26.57;;;6.13;;
19183;SDS011;9724;51.194;6.856;2023-12-20T13:59:46;16.93;;;5.47;;
19183;SDS011;9724;51.194;6.856;2023-12-20T14:02:14;15.63;;;5.40;;
19183;SDS011;9724;51.194;6.856;2023-12-20T14:04:41;24.70;;;5.70;;
19183;SDS011;9724;51.194;6.856;2023-12-20T14:07:09;18.20;;;5.10;;
19183;SDS011;9724;51.194;6.856;2023-12-20T14:09:36;19.50;;;5.50;;
19183;SDS011;9724;51.194;6.856;2023-12-20T14:12:03;18.73;;;5.67;;
19183;SDS011;9724;51.194;6.856;2023-12-20T14:14:29;15.93;;;5.50;;
19183;SDS011;9724;51.194;6.856;2023-12-20T14:16:56;20.70;;;4.83;;
19183;SDS011;9724;51.194;6.856;2023-12-20T14:19:23;13.70;;;4.93;;
19183;SDS011;9724;51.194;6.856;2023-12-20T14:21:50;16.67;;;4.70;;
19183;SDS011;9724;51.194;6.856;2023-12-20T14:24:16;15.53;;;4.67;;
19183;SDS011;9724;51.194;6.856;2023-12-20T14:26:43;7.57;;;4.10;;
19183;SDS011;9724;51.194;6.856;2023-12-20T14:29:09;17.77;;;4.80;;
19183;SDS011;9724;51.194;6.856;2023-12-20T14:31:35;13.27;;;4.60;;
19183;SDS011;9724;51.194;6.856;2023-12-20T14:34:03;12.27;;;4.17;;
19183;SDS011;9724;51.194;6.856;2023-12-20T14:36:30;17.63;;;4.57;;
19183;SDS011;9724;51.194;6.856;2023-12-20T14:38:57;12.53;;;4.50;;
19183;SDS011;9724;51.194;6.856;2023-12-20T14:41:23;12.63;;;4.30;;
19183;SDS011;9724;51.194;6.856;2023-12-20T14:43:50;11.90;;;4.60;;
19183;SDS011;9724;51.194;6.856;2023-12-20T14:46:16;14.80;;;4.70;;